Time;durP1;ratioP1;P1;durP2;ratioP2;P2;SDS_P1;SDS_P2;PMS_P1;PMS_P2;Temp;Humidity;BMP_temperature;BMP_pressure;BME280_temperature;BME280_humidity;BME280_pressure;Samples;Min_cycle;Max_cycle;Signal;HPM_P1;HPM_P2
2022/11/06 00:01:13;;;;;;;5.40;2.90;;;;;;;7.57;78.86;100930.31;102737;1298;61328;-77
2022/11/06 00:03:40;;;;;;;7.30;3.30;;;;;;;7.58;78.84;100928.69;103094;1298;61645;-76
2022/11/06 00:08:57;;;;;;;5.00;3.10;;;;;;;7.57;79.26;100922.02;103991;1293;71388;-76
2022/11/06 00:11:24;;;;;;;6.70;3.10;;;;;;;7.58;79.25;100924.94;103164;1297;73146;-76
2022/11/06 00:13:53;;;;;;;6.10;3.00;;;;;;;7.57;79.57;100925.56;103062;1288;61685;-76
2022/11/06 00:16:20;;;;;;;7.00;3.00;;;;;;;7.58;79.73;100923.91;103530;1295;61195;-76
2022/11/06 00:18:47;;;;;;;8.40;3.00;;;;;;;7.58;79.51;100922.02;103421;1290;74435;-76
2022/11/06 00:21:26;;;;;;;5.90;3.00;;;;;;;7.58;79.80;100914.54;103123;1298;69872;-76
2022/11/06 00:23:54;;;;;;;4.30;2.90;;;;;;;7.59;79.68;100913.10;102995;1298;70797;-75
2022/11/06 00:26:24;;;;;;;6.00;3.30;;;;;;;7.60;80.02;100912.45;103471;1298;61435;-77
2022/11/06 00:28:55;;;;;;;5.80;3.00;;;;;;;7.62;80.49;100907.89;103570;1294;61379;-77
2022/11/06 00:31:27;;;;;;;5.20;2.90;;;;;;;7.65;80.46;100908.08;103038;1294;73358;-76
2022/11/06 00:33:56;;;;;;;4.50;2.90;;;;;;;7.70;80.06;100904.26;103140;1294;68754;-76
2022/11/06 00:36:24;;;;;;;4.60;3.00;;;;;;;7.75;80.37;100903.58;103372;1296;72420;-78
2022/11/06 00:38:52;;;;;;;5.20;2.70;;;;;;;7.79;80.09;100908.98;103281;1297;61459;-77
2022/11/06 00:41:19;;;;;;;5.10;2.80;;;;;;;7.84;79.90;100909.73;105524;1294;59151;-75
2022/11/06 00:43:51;;;;;;;5.00;2.50;;;;;;;7.88;79.86;100906.48;104431;1286;74769;-76
2022/11/06 00:46:18;;;;;;;6.10;2.70;;;;;;;7.92;80.15;100907.22;105140;1297;69489;-76
2022/11/06 00:48:45;;;;;;;8.30;2.90;;;;;;;7.96;79.90;100908.19;103426;1303;72953;-76
2022/11/06 00:51:18;;;;;;;8.00;2.80;;;;;;;7.99;79.80;100903.63;103045;1304;62455;-76
2022/11/06 00:53:45;;;;;;;6.70;2.40;;;;;;;8.04;79.60;100903.23;102827;1293;61086;-76
2022/11/06 00:56:14;;;;;;;5.20;2.60;;;;;;;8.06;79.69;100905.09;104219;1292;73100;-77
2022/11/06 00:58:42;;;;;;;8.20;2.60;;;;;;;8.08;79.31;100904.48;103699;1302;69629;-77
2022/11/06 01:01:14;;;;;;;5.60;2.70;;;;;;;8.11;79.33;100903.14;103491;1294;72611;-76
2022/11/06 01:03:43;;;;;;;5.70;2.60;;;;;;;8.13;79.26;100898.05;104323;1295;61282;-76
2022/11/06 01:06:16;;;;;;;5.10;2.30;;;;;;;8.13;79.25;100901.91;103727;1301;60441;-76
2022/11/06 01:08:44;;;;;;;4.70;2.40;;;;;;;8.12;79.57;100905.87;103402;1295;73117;-76
2022/11/06 01:11:16;;;;;;;5.70;2.70;;;;;;;8.13;79.39;100907.02;102896;1294;69861;-77
2022/11/06 01:13:44;;;;;;;5.80;2.70;;;;;;;8.13;79.58;100909.67;103451;1300;72101;-77
2022/11/06 01:16:13;;;;;;;6.10;2.90;;;;;;;8.15;79.37;100912.80;104161;1290;61270;-76
2022/11/06 01:18:41;;;;;;;5.70;2.90;;;;;;;8.13;79.54;100913.70;103536;1297;61479;-76
2022/11/06 01:21:14;;;;;;;6.30;2.90;;;;;;;8.14;79.72;100911.51;103045;1291;73697;-76
2022/11/06 01:23:41;;;;;;;6.70;3.00;;;;;;;8.15;79.24;100910.11;104318;1297;72227;-76
2022/11/06 01:26:09;;;;;;;5.20;2.70;;;;;;;8.16;79.52;100907.05;103375;1296;72224;-76
2022/11/06 01:28:38;;;;;;;6.40;2.90;;;;;;;8.16;79.33;100896.13;103377;1298;61260;-76
2022/11/06 01:31:10;;;;;;;6.00;3.10;;;;;;;8.18;79.39;100897.91;103070;1294;61670;-75
2022/11/06 01:33:37;;;;;;;7.00;3.20;;;;;;;8.18;79.43;100898.78;103319;1297;73500;-76
2022/11/06 01:36:04;;;;;;;6.20;3.20;;;;;;;8.17;79.38;100895.00;104459;1297;70858;-75
2022/11/06 01:38:31;;;;;;;7.10;3.10;;;;;;;8.17;79.29;100892.90;103250;1296;72049;-77
2022/11/06 01:40:57;;;;;;;5.40;2.90;;;;;;;8.17;79.27;100890.58;103954;1296;62380;-76
2022/11/06 01:43:46;;;;;;;7.40;3.30;;;;;;;8.17;79.42;100889.52;103568;1301;61417;-77
2022/11/06 01:46:14;;;;;;;5.10;3.10;;;;;;;8.14;79.52;100884.85;103237;1298;73564;-77
2022/11/06 01:48:45;;;;;;;6.20;3.20;;;;;;;8.13;79.26;100884.48;103887;1295;69724;-77
2022/11/06 01:51:13;;;;;;;5.20;3.40;;;;;;;8.13;79.06;100881.66;103804;1301;73792;-76
2022/11/06 01:53:40;;;;;;;8.50;3.30;;;;;;;8.13;79.20;100881.23;105046;1294;61598;-76
2022/11/06 01:56:10;;;;;;;5.60;3.40;;;;;;;8.12;79.33;100888.43;104499;1295;59692;-76
2022/11/06 01:58:42;;;;;;;6.90;3.40;;;;;;;8.13;79.48;100883.25;104513;1295;75008;-76
2022/11/06 02:01:08;;;;;;;5.20;3.20;;;;;;;8.12;79.60;100886.45;103893;1301;70868;-77
2022/11/06 02:03:37;;;;;;;5.80;3.40;;;;;;;8.12;79.36;100881.36;103831;1297;72234;-77
2022/11/06 02:06:05;;;;;;;8.50;3.50;;;;;;;8.12;79.66;100879.98;102875;1301;61990;-76
2022/11/06 02:08:32;;;;;;;5.60;3.40;;;;;;;8.12;79.46;100881.23;103453;1304;61364;-76
2022/11/06 02:10:59;;;;;;;6.40;3.50;;;;;;;8.12;79.61;100884.38;103488;1304;74758;-77
2022/11/06 02:13:57;;;;;;;6.40;3.50;;;;;;;8.13;79.55;100884.67;103891;1303;59257;-76
2022/11/06 02:16:53;;;;;;;6.00;3.50;;;;;;;8.13;79.62;100884.64;103285;1288;71477;-75
2022/11/06 02:19:38;;;;;;;7.70;3.60;;;;;;;8.12;79.34;100884.44;103842;1301;61288;-76
2022/11/06 02:22:26;;;;;;;7.10;4.10;;;;;;;8.11;79.82;100884.92;103893;1301;59692;-77
2022/11/06 02:25:14;;;;;;;6.50;3.60;;;;;;;8.09;79.35;100885.80;103061;1300;74364;-75
2022/11/06 02:27:57;;;;;;;7.40;4.00;;;;;;;8.11;79.74;100883.98;103710;1296;69998;-76
2022/11/06 02:30:23;;;;;;;6.30;3.80;;;;;;;8.10;79.83;100886.58;103304;1290;71603;-76
2022/11/06 02:33:02;;;;;;;6.90;3.40;;;;;;;8.07;79.75;100882.21;103729;1293;61247;-76
2022/11/06 02:35:41;;;;;;;7.50;3.80;;;;;;;8.06;79.80;100873.02;104031;1297;61162;-76
2022/11/06 02:38:15;;;;;;;6.30;3.50;;;;;;;8.03;79.77;100870.83;103959;1292;74812;-76
2022/11/06 02:40:47;;;;;;;6.20;3.40;;;;;;;7.98;80.18;100863.43;103166;1298;71578;-76
2022/11/06 02:43:16;;;;;;;6.20;3.60;;;;;;;7.96;79.81;100862.36;104256;1301;72868;-76
2022/11/06 02:45:53;;;;;;;8.20;3.60;;;;;;;7.95;80.07;100856.38;102975;1301;61048;-76
2022/11/06 02:48:25;;;;;;;8.30;3.90;;;;;;;7.94;80.20;100856.05;103103;1302;61742;-77
2022/11/06 02:50:55;;;;;;;6.40;3.70;;;;;;;7.92;80.34;100854.56;103555;1303;73626;-76
2022/11/06 02:53:24;;;;;;;5.60;3.30;;;;;;;7.92;80.30;100850.17;103733;1298;71261;-77
2022/11/06 02:56:13;;;;;;;6.30;3.60;;;;;;;7.90;80.26;100844.14;104232;1295;72481;-77
2022/11/06 02:58:48;;;;;;;7.80;3.70;;;;;;;7.87;80.37;100844.60;103247;1302;61209;-77
2022/11/06 03:01:22;;;;;;;6.90;3.40;;;;;;;7.86;80.60;100847.25;103763;1302;61466;-77
2022/11/06 03:03:55;;;;;;;7.70;3.60;;;;;;;7.83;80.60;100843.86;103850;1286;73832;-77
2022/11/06 03:06:32;;;;;;;7.50;3.90;;;;;;;7.83;80.63;100845.25;103310;1294;70780;-77
2022/11/06 03:09:07;;;;;;;9.50;4.20;;;;;;;7.80;80.69;100841.88;103408;1304;72847;-77
2022/11/06 03:11:39;;;;;;;8.60;4.10;;;;;;;7.77;80.91;100843.21;103988;1285;61704;-77
2022/11/06 03:14:08;;;;;;;8.00;4.00;;;;;;;7.72;81.03;100845.06;103582;1294;61417;-76
2022/11/06 03:16:47;;;;;;;6.90;4.00;;;;;;;7.69;81.38;100847.98;103535;1301;73416;-75
2022/11/06 03:19:17;;;;;;;8.10;4.30;;;;;;;7.65;81.39;100846.86;104211;1297;69593;-75
2022/11/06 03:22:08;;;;;;;7.60;4.20;;;;;;;7.60;81.42;100842.42;103190;1303;72241;-75
2022/11/06 03:24:51;;;;;;;6.70;4.00;;;;;;;7.55;81.56;100838.95;103379;1301;61335;-76
2022/11/06 03:27:46;;;;;;;5.80;3.70;;;;;;;7.49;81.95;100835.86;103178;1299;61821;-76
2022/11/06 03:30:13;;;;;;;7.30;3.80;;;;;;;7.45;82.38;100832.77;103796;1294;72164;-77
2022/11/06 03:32:57;;;;;;;5.90;3.90;;;;;;;7.41;82.22;100821.90;104223;1297;69772;-77
2022/11/06 03:35:30;;;;;;;7.30;3.90;;;;;;;7.36;82.53;100819.26;102974;1302;71748;-76
2022/11/06 03:38:18;;;;;;;7.60;3.70;;;;;;;7.33;82.72;100819.20;104555;1294;60432;-77
2022/11/06 03:40:52;;;;;;;6.70;3.90;;;;;;;7.29;83.14;100815.16;103223;1302;62677;-75
2022/11/06 03:43:24;;;;;;;5.80;3.50;;;;;;;7.26;83.18;100820.51;103378;1297;73207;-78
2022/11/06 03:45:52;;;;;;;7.70;3.90;;;;;;;7.24;83.17;100816.89;102903;1298;71229;-77
2022/11/06 03:48:25;;;;;;;6.40;3.60;;;;;;;7.21;83.36;100813.46;104328;1289;72666;-76
2022/11/06 03:50:58;;;;;;;6.40;3.80;;;;;;;7.20;83.44;100812.60;103390;1293;62171;-77
2022/11/06 03:53:47;;;;;;;6.80;3.80;;;;;;;7.16;83.70;100817.27;103849;1294;61256;-76
2022/11/06 03:56:22;;;;;;;6.70;4.00;;;;;;;7.13;83.85;100821.60;104203;1295;74337;-76
2022/11/06 03:58:49;;;;;;;7.50;3.80;;;;;;;7.12;83.80;100821.75;103292;1302;70867;-75
2022/11/06 04:01:23;;;;;;;5.10;3.70;;;;;;;7.12;84.05;100821.62;103297;1295;71023;-77
2022/11/06 04:03:58;;;;;;;7.00;3.90;;;;;;;7.10;83.83;100821.80;103251;1297;61314;-76
2022/11/06 04:06:34;;;;;;;5.80;3.70;;;;;;;7.07;83.98;100826.45;104442;1296;59007;-77
2022/11/06 04:14:39;;;;;;;7.20;4.10;;;;;;;7.03;84.20;100816.50;103911;1295;73233;-75
2022/11/06 04:17:09;;;;;;;6.40;4.20;;;;;;;7.02;84.37;100817.67;103312;1304;61369;-76
2022/11/06 04:19:36;;;;;;;7.60;4.30;;;;;;;7.00;84.52;100818.03;103026;1302;61396;-76
2022/11/06 04:22:21;;;;;;;7.60;4.00;;;;;;;6.99;84.57;100819.54;104179;1297;74345;-76
2022/11/06 04:28:05;;;;;;;9.10;4.20;;;;;;;6.98;84.69;100817.68;103446;1286;71162;-77
2022/11/06 04:30:41;;;;;;;6.00;3.80;;;;;;;7.00;84.76;100815.23;103810;1299;62829;-78
2022/11/06 04:33:18;;;;;;;9.90;4.80;;;;;;;7.00;84.84;100813.27;104593;1302;61226;-76
2022/11/06 04:36:00;;;;;;;5.70;4.20;;;;;;;7.02;85.01;100808.84;104517;1303;74433;-75
2022/11/06 04:38:56;;;;;;;7.70;4.50;;;;;;;7.06;84.89;100810.05;103601;1301;71327;-77
2022/11/06 04:41:45;;;;;;;8.60;4.20;;;;;;;7.09;84.98;100809.59;104580;1294;72442;-77
2022/11/06 04:44:23;;;;;;;6.40;3.90;;;;;;;7.12;84.74;100803.45;103560;1297;61805;-76
2022/11/06 04:46:56;;;;;;;7.80;3.80;;;;;;;7.14;84.84;100803.81;104582;1295;61208;-76
2022/11/06 04:49:25;;;;;;;6.30;3.60;;;;;;;7.17;84.81;100808.90;102992;1297;74854;-76
2022/11/06 04:51:52;;;;;;;5.80;4.00;;;;;;;7.19;84.77;100811.42;104855;1288;70007;-76
2022/11/06 04:54:19;;;;;;;7.50;3.70;;;;;;;7.21;84.88;100818.05;104026;1299;70590;-76
2022/11/06 04:56:45;;;;;;;5.10;3.50;;;;;;;7.22;84.58;100816.70;103830;1291;60279;-77
2022/11/06 04:59:15;;;;;;;6.60;3.50;;;;;;;7.24;84.44;100818.27;103686;1295;61394;-76
2022/11/06 05:01:43;;;;;;;8.20;3.70;;;;;;;7.27;84.18;100811.61;104028;1295;74814;-77
2022/11/06 05:04:11;;;;;;;7.20;3.50;;;;;;;7.31;84.20;100807.20;103744;1304;69008;-77
2022/11/06 05:06:37;;;;;;;5.70;3.50;;;;;;;7.33;83.91;100812.23;104288;1279;71196;-77
2022/11/06 05:09:04;;;;;;;8.10;3.80;;;;;;;7.37;83.88;100806.33;103511;1297;61276;-78
2022/11/06 05:11:30;;;;;;;6.20;3.30;;;;;;;7.41;83.84;100802.11;103621;1298;61167;-78
2022/11/06 05:13:57;;;;;;;6.60;3.60;;;;;;;7.43;83.81;100799.22;103992;1294;59798;-77
2022/11/06 05:16:23;;;;;;;6.20;3.50;;;;;;;7.48;83.71;100801.39;103434;1301;61314;-76
2022/11/06 05:18:50;;;;;;;6.70;3.20;;;;;;;7.50;83.61;100802.70;103871;1303;61282;-77
2022/11/06 05:24:01;;;;;;;8.00;4.10;;;;;;;7.57;83.31;100804.50;105413;1294;58973;-78
2022/11/06 05:26:28;;;;;;;6.80;3.60;;;;;;;7.58;83.31;100802.80;105620;1287;72537;-78
2022/11/06 05:28:54;;;;;;;8.20;4.00;;;;;;;7.60;83.32;100803.35;105533;1286;59117;-78
2022/11/06 05:31:21;;;;;;;6.40;4.20;;;;;;;7.62;83.01;100798.05;104801;1295;62610;-77
2022/11/06 05:33:47;;;;;;;7.80;4.10;;;;;;;7.64;82.95;100801.52;103842;1300;61311;-77
2022/11/06 05:36:14;;;;;;;7.30;3.90;;;;;;;7.65;82.88;100796.85;103146;1302;61265;-77
2022/11/06 05:38:40;;;;;;;7.40;4.30;;;;;;;7.67;82.89;100797.16;104493;1297;59461;-77
2022/11/06 05:41:07;;;;;;;7.50;4.10;;;;;;;7.68;82.78;100795.81;103660;1296;61386;-76
2022/11/06 05:43:34;;;;;;;6.70;3.90;;;;;;;7.69;82.78;100795.90;103548;1297;61395;-77
2022/11/06 05:46:00;;;;;;;6.60;4.10;;;;;;;7.70;82.59;100800.92;104355;1289;59242;-78
2022/11/06 05:48:28;;;;;;;6.10;3.90;;;;;;;7.71;82.74;100796.70;103139;1302;61160;-77
2022/11/06 05:51:00;;;;;;;8.70;4.00;;;;;;;7.74;82.63;100789.79;103391;1302;73526;-76
2022/11/06 05:53:28;;;;;;;7.50;3.90;;;;;;;7.73;82.81;100783.98;103712;1302;70861;-76
2022/11/06 05:55:54;;;;;;;7.30;3.70;;;;;;;7.76;82.43;100777.56;104037;1302;72455;-75
2022/11/06 05:58:21;;;;;;;7.20;3.90;;;;;;;7.78;82.42;100773.88;103633;1301;61695;-76
2022/11/06 06:00:47;;;;;;;6.60;3.80;;;;;;;7.79;82.37;100768.03;103654;1294;59321;-76
2022/11/06 06:03:14;;;;;;;6.30;3.80;;;;;;;7.80;81.78;100768.11;103351;1294;74940;-75
2022/11/06 06:05:40;;;;;;;6.40;3.80;;;;;;;7.79;81.94;100764.08;103600;1295;61245;-76
2022/11/06 06:08:07;;;;;;;6.30;3.40;;;;;;;7.78;82.20;100765.98;102820;1297;61291;-75
2022/11/06 06:10:33;;;;;;;6.60;3.90;;;;;;;7.77;82.14;100762.71;103315;1302;61306;-76
2022/11/06 06:13:00;;;;;;;6.50;3.30;;;;;;;7.74;82.14;100765.66;104485;1285;61385;-76
2022/11/06 06:15:26;;;;;;;5.70;3.30;;;;;;;7.71;81.84;100769.41;104244;1292;61425;-76
2022/11/06 06:17:53;;;;;;;6.00;3.70;;;;;;;7.69;81.88;100775.61;103003;1304;61372;-76
2022/11/06 06:20:19;;;;;;;7.70;3.90;;;;;;;7.68;81.92;100773.48;103331;1293;61547;-79
2022/11/06 06:22:54;;;;;;;7.10;3.50;;;;;;;7.66;81.87;100781.78;103562;1304;61420;-76
2022/11/06 06:25:20;;;;;;;6.80;3.80;;;;;;;7.64;81.83;100779.98;103965;1301;59277;-76
2022/11/06 06:27:49;;;;;;;8.50;3.80;;;;;;;7.64;82.03;100776.55;103197;1303;73718;-76
2022/11/06 06:30:16;;;;;;;8.20;3.90;;;;;;;7.62;82.28;100780.45;103567;1294;69758;-76
2022/11/06 06:32:43;;;;;;;6.20;3.60;;;;;;;7.61;82.17;100779.30;104894;1300;72444;-77
2022/11/06 06:35:10;;;;;;;7.80;4.00;;;;;;;7.60;82.07;100782.27;103406;1295;61307;-77
2022/11/06 06:37:36;;;;;;;8.50;3.80;;;;;;;7.60;82.40;100779.59;103338;1297;61265;-76
2022/11/06 06:40:04;;;;;;;7.30;3.80;;;;;;;7.58;82.62;100777.10;103116;1297;72139;-77
2022/11/06 06:42:30;;;;;;;7.00;4.00;;;;;;;7.58;82.37;100779.08;103585;1302;70834;-77
2022/11/06 06:44:57;;;;;;;8.10;3.80;;;;;;;7.58;82.50;100776.23;103503;1300;71186;-77
2022/11/06 06:47:24;;;;;;;8.00;3.80;;;;;;;7.59;82.47;100774.20;103189;1300;61657;-77
2022/11/06 06:49:50;;;;;;;9.00;4.00;;;;;;;7.59;82.63;100768.95;104519;1301;60435;-77
2022/11/06 06:52:17;;;;;;;6.70;3.70;;;;;;;7.60;82.50;100761.91;103200;1295;73471;-77
2022/11/06 06:54:44;;;;;;;8.20;3.90;;;;;;;7.62;82.59;100765.44;103777;1295;71097;-76
2022/11/06 06:57:10;;;;;;;7.50;3.90;;;;;;;7.63;82.21;100757.24;103088;1295;73042;-76
2022/11/06 06:59:37;;;;;;;7.20;3.60;;;;;;;7.63;82.47;100756.52;103829;1293;61366;-76
2022/11/06 07:02:03;;;;;;;8.00;3.60;;;;;;;7.64;82.32;100762.20;103120;1301;61397;-76
2022/11/06 07:04:30;;;;;;;7.30;3.70;;;;;;;7.65;82.32;100756.98;103021;1291;76694;-76
2022/11/06 07:06:57;;;;;;;7.60;4.00;;;;;;;7.67;82.21;100767.27;102949;1301;61980;-76
2022/11/06 07:09:23;;;;;;;7.60;3.60;;;;;;;7.67;82.57;100768.61;104065;1300;61232;-76
2022/11/06 07:11:50;;;;;;;9.80;4.50;;;;;;;7.70;82.63;100765.37;103202;1300;61282;-76
2022/11/06 07:14:16;;;;;;;7.80;4.00;;;;;;;7.71;82.55;100764.33;102957;1293;62427;-77
2022/11/06 07:16:42;;;;;;;6.10;3.60;;;;;;;7.73;82.19;100761.46;102589;1302;61363;-77
2022/11/06 07:19:09;;;;;;;8.50;4.40;;;;;;;7.75;82.28;100765.38;103588;1302;61498;-77
2022/11/06 07:21:36;;;;;;;7.30;4.00;;;;;;;7.79;82.58;100766.27;102892;1302;72123;-78
2022/11/06 07:24:03;;;;;;;7.60;4.20;;;;;;;7.82;82.63;100767.52;103298;1294;62544;-76
2022/11/06 07:26:29;;;;;;;7.70;3.80;;;;;;;7.86;82.41;100765.58;103532;1298;60258;-77
2022/11/06 07:28:56;;;;;;;7.90;4.10;;;;;;;7.92;82.40;100770.73;103508;1302;73425;-76
2022/11/06 07:31:22;;;;;;;6.40;4.00;;;;;;;7.97;82.15;100780.11;103602;1294;61381;-77
2022/11/06 07:33:49;;;;;;;7.00;3.70;;;;;;;8.01;82.18;100775.05;103146;1301;61170;-77
2022/11/06 07:36:15;;;;;;;6.90;4.30;;;;;;;8.04;82.00;100775.06;103661;1300;61341;-76
2022/11/06 07:38:42;;;;;;;8.60;4.20;;;;;;;8.11;81.46;100780.02;103168;1302;61220;-76
2022/11/06 07:41:13;;;;;;;9.30;4.00;;;;;;;8.15;81.57;100779.79;102637;1297;74699;-77
2022/11/06 07:43:40;;;;;;;9.00;4.20;;;;;;;8.21;81.34;100779.06;102613;1294;69603;-76
2022/11/06 07:46:09;;;;;;;7.20;4.00;;;;;;;8.27;81.49;100771.55;103496;1295;73108;-76
2022/11/06 07:48:36;;;;;;;6.80;4.00;;;;;;;8.31;81.18;100768.43;104481;1301;61311;-76
2022/11/06 07:51:05;;;;;;;9.30;4.40;;;;;;;8.37;80.80;100767.73;105513;1294;59154;-74
2022/11/06 07:53:32;;;;;;;7.90;4.30;;;;;;;8.44;80.86;100762.80;105368;1287;74515;-73
2022/11/06 07:55:59;;;;;;;7.40;4.30;;;;;;;8.50;80.76;100763.69;103489;1295;70792;-74
2022/11/06 07:58:26;;;;;;;10.00;4.30;;;;;;;8.51;80.15;100763.45;103456;1298;72767;-73
2022/11/06 08:00:55;;;;;;;7.90;4.20;;;;;;;8.46;80.17;100761.82;103536;1294;61279;-74
2022/11/06 08:03:24;;;;;;;7.00;3.90;;;;;;;8.45;80.37;100756.68;103373;1300;61294;-74
2022/11/06 08:05:50;;;;;;;9.20;4.20;;;;;;;8.47;80.58;100752.02;104260;1300;74415;-73
2022/11/06 08:08:17;;;;;;;8.80;4.20;;;;;;;8.51;80.40;100752.70;103422;1302;71696;-74
2022/11/06 08:10:43;;;;;;;8.30;4.40;;;;;;;8.50;80.11;100759.83;104668;1294;61187;-73
2022/11/06 08:13:11;;;;;;;9.20;4.60;;;;;;;8.52;80.21;100759.16;103990;1301;61319;-74
2022/11/06 08:15:38;;;;;;;8.00;4.90;;;;;;;8.52;80.38;100755.73;103417;1296;61296;-74
2022/11/06 08:18:07;;;;;;;9.70;4.50;;;;;;;8.57;80.22;100755.44;103347;1302;74629;-73
2022/11/06 08:20:34;;;;;;;7.40;4.30;;;;;;;8.63;80.08;100758.34;103393;1297;69618;-73
2022/11/06 08:23:02;;;;;;;7.80;4.60;;;;;;;8.68;79.80;100759.80;104250;1303;71105;-73
2022/11/06 08:25:29;;;;;;;8.80;4.50;;;;;;;8.72;79.82;100756.67;103801;1295;61748;-73
2022/11/06 08:28:00;;;;;;;6.00;4.00;;;;;;;8.76;79.81;100754.42;104223;1301;61191;-73
2022/11/06 08:30:28;;;;;;;8.10;4.00;;;;;;;8.83;79.57;100756.39;103288;1300;72184;-73
2022/11/06 08:33:00;;;;;;;6.70;3.90;;;;;;;8.86;79.36;100760.84;103471;1302;68840;-73
2022/11/06 08:35:27;;;;;;;6.50;3.80;;;;;;;8.88;79.33;100750.74;103908;1294;72674;-74
2022/11/06 08:37:54;;;;;;;7.70;4.30;;;;;;;8.91;78.99;100749.18;103627;1295;60988;-74
2022/11/06 08:40:21;;;;;;;7.20;3.90;;;;;;;8.97;79.11;100753.33;103530;1301;61366;-74
2022/11/06 08:43:03;;;;;;;6.70;4.10;;;;;;;8.99;78.49;100756.14;104152;1299;73604;-74
2022/11/06 08:45:36;;;;;;;6.80;3.90;;;;;;;8.97;78.55;100755.98;103661;1303;70629;-74
2022/11/06 08:48:03;;;;;;;7.00;4.00;;;;;;;9.02;78.62;100749.20;104042;1294;71155;-73
2022/11/06 08:50:31;;;;;;;5.70;3.60;;;;;;;9.05;78.43;100758.37;103437;1302;61317;-74
2022/11/06 08:52:59;;;;;;;7.80;3.80;;;;;;;9.11;78.41;100761.23;103320;1302;61244;-74
2022/11/06 08:55:26;;;;;;;6.30;4.10;;;;;;;9.14;78.26;100753.86;104014;1297;75157;-74
2022/11/06 08:57:54;;;;;;;5.40;3.50;;;;;;;9.20;78.12;100757.91;103304;1301;71142;-74
2022/11/06 09:00:21;;;;;;;7.40;4.00;;;;;;;9.28;77.88;100755.88;104385;1297;71898;-74
2022/11/06 09:02:48;;;;;;;7.40;3.90;;;;;;;9.34;77.35;100747.96;103168;1298;61368;-74
2022/11/06 09:05:15;;;;;;;6.50;3.50;;;;;;;9.47;77.12;100741.84;104070;1294;62973;-73
2022/11/06 09:07:41;;;;;;;5.70;3.50;;;;;;;9.57;76.42;100743.23;104103;1295;74486;-73
2022/11/06 09:10:08;;;;;;;7.60;3.50;;;;;;;9.68;75.83;100736.16;103331;1301;72260;-74
2022/11/06 09:12:34;;;;;;;8.10;3.40;;;;;;;9.79;75.36;100729.98;103772;1302;71526;-73
2022/11/06 09:15:01;;;;;;;6.00;3.60;;;;;;;9.92;74.91;100724.70;103228;1304;59378;-74
2022/11/06 09:17:27;;;;;;;7.90;3.70;;;;;;;10.05;74.54;100722.69;104376;1301;61764;-73
2022/11/06 09:19:56;;;;;;;5.50;3.20;;;;;;;10.17;74.19;100713.84;103151;1302;75380;-73
2022/11/06 09:22:22;;;;;;;7.70;3.50;;;;;;;10.26;73.94;100717.19;104654;1302;59124;-73
2022/11/06 09:24:49;;;;;;;8.20;3.60;;;;;;;10.42;73.95;100726.75;104338;1300;61420;-74
2022/11/06 09:27:30;;;;;;;6.70;3.40;;;;;;;10.55;72.53;100727.45;103338;1300;61256;-74
2022/11/06 09:29:57;;;;;;;6.90;3.10;;;;;;;10.62;72.20;100725.42;104128;1300;61276;-74
2022/11/06 09:32:24;;;;;;;6.60;3.20;;;;;;;10.65;72.17;100734.17;103620;1293;74704;-74
2022/11/06 09:34:50;;;;;;;6.10;3.60;;;;;;;10.64;72.19;100737.34;104048;1294;70341;-74
2022/11/06 09:37:17;;;;;;;5.40;3.20;;;;;;;10.68;72.21;100721.94;102879;1297;72460;-74
2022/11/06 09:39:44;;;;;;;8.50;3.70;;;;;;;10.71;72.14;100715.23;104242;1295;61544;-74
2022/11/06 09:42:25;;;;;;;6.40;3.20;;;;;;;10.77;72.23;100708.41;104150;1292;59422;-75
2022/11/06 09:45:13;;;;;;;5.10;3.20;;;;;;;10.77;71.82;100701.72;103854;1294;73942;-74
2022/11/06 09:47:46;;;;;;;6.80;3.50;;;;;;;10.71;71.94;100698.90;104072;1302;70029;-74
2022/11/06 09:50:21;;;;;;;6.20;3.60;;;;;;;10.64;72.30;100692.98;103744;1295;71144;-76
2022/11/06 09:52:56;;;;;;;5.30;3.40;;;;;;;10.59;72.26;100689.14;103567;1297;61285;-74
2022/11/06 09:55:36;;;;;;;7.00;3.40;;;;;;;10.57;72.53;100695.68;103522;1300;61296;-73
2022/11/06 09:58:26;;;;;;;6.40;3.40;;;;;;;10.61;72.38;100699.70;103881;1303;74053;-74
2022/11/06 10:00:53;;;;;;;7.00;3.30;;;;;;;10.70;72.21;100697.28;103770;1301;69430;-74
2022/11/06 10:03:39;;;;;;;5.60;3.10;;;;;;;10.80;71.92;100694.48;103703;1301;72551;-75
2022/11/06 10:06:06;;;;;;;5.20;2.50;;;;;;;10.87;71.69;100688.05;103452;1306;62575;-76
2022/11/06 10:08:33;;;;;;;5.30;3.10;;;;;;;10.94;71.37;100696.50;103604;1300;61379;-74
2022/11/06 10:11:26;;;;;;;5.30;2.70;;;;;;;10.99;71.05;100706.71;103928;1302;73565;-74
2022/11/06 10:14:04;;;;;;;4.90;2.60;;;;;;;11.09;70.63;100700.92;104154;1302;70760;-74
2022/11/06 10:16:49;;;;;;;4.80;2.80;;;;;;;11.14;70.40;100701.63;104121;1300;71668;-74
2022/11/06 10:19:16;;;;;;;5.40;2.40;;;;;;;11.27;70.66;100694.23;104139;1293;61336;-74
2022/11/06 10:22:24;;;;;;;5.40;2.60;;;;;;;11.38;70.66;100692.33;103483;1301;61276;-75
2022/11/06 10:25:03;;;;;;;3.90;2.50;;;;;;;11.53;70.01;100686.55;103636;1300;73112;-74
2022/11/06 10:27:39;;;;;;;3.50;2.30;;;;;;;11.63;69.68;100689.27;103365;1301;71158;-75
2022/11/06 10:30:16;;;;;;;4.20;2.20;;;;;;;11.64;69.04;100693.10;103908;1304;73167;-76
2022/11/06 10:33:23;;;;;;;4.10;2.40;;;;;;;11.70;69.58;100685.78;104440;1293;61328;-75
2022/11/06 10:36:11;;;;;;;5.10;2.50;;;;;;;11.74;68.85;100685.55;104264;1294;61269;-74
2022/11/06 10:38:42;;;;;;;4.80;2.30;;;;;;;11.79;69.13;100682.35;103853;1301;73297;-74
2022/11/06 10:41:20;;;;;;;6.10;2.40;;;;;;;11.81;68.44;100685.33;103873;1302;70869;-75
2022/11/06 10:44:00;;;;;;;4.40;2.40;;;;;;;11.79;68.15;100681.30;102787;1291;71973;-74
2022/11/06 10:46:43;;;;;;;4.60;2.30;;;;;;;11.81;68.22;100680.30;103285;1302;61777;-74
2022/11/06 10:49:28;;;;;;;4.70;2.30;;;;;;;11.80;68.02;100674.07;104002;1302;60272;-75
2022/11/06 10:52:01;;;;;;;5.90;2.00;;;;;;;11.88;68.56;100669.89;104198;1301;77324;-74
2022/11/06 10:55:22;;;;;;;5.00;2.20;;;;;;;11.93;68.86;100666.95;103062;1300;70835;-74
2022/11/06 10:57:55;;;;;;;4.80;2.30;;;;;;;12.09;69.21;100654.73;104034;1291;71508;-72
2022/11/06 11:00:22;;;;;;;5.60;2.50;;;;;;;12.28;68.79;100645.70;103719;1300;62062;-73
2022/11/06 11:02:53;;;;;;;4.80;2.30;;;;;;;12.52;67.27;100644.05;103223;1302;60154;-73
2022/11/06 11:05:22;;;;;;;4.00;2.10;;;;;;;12.73;66.63;100634.86;102993;1303;243188;-74
2022/11/06 11:07:50;;;;;;;5.60;2.50;;;;;;;12.79;65.03;100634.48;104457;1302;69227;-75
2022/11/06 11:10:26;;;;;;;4.30;2.20;;;;;;;12.87;64.92;100627.05;103536;1301;72203;-75
2022/11/06 11:12:55;;;;;;;4.30;1.90;;;;;;;13.00;64.15;100626.55;103249;1298;63014;-76
2022/11/06 11:15:25;;;;;;;5.00;2.00;;;;;;;13.16;63.18;100624.86;103684;1302;60463;-74
2022/11/06 11:18:10;;;;;;;4.50;1.90;;;;;;;13.33;62.12;100615.33;104091;1302;74016;-75
2022/11/06 11:20:40;;;;;;;4.60;2.00;;;;;;;13.45;61.48;100613.78;103459;1294;71396;-75
2022/11/06 11:23:17;;;;;;;3.60;1.70;;;;;;;13.54;60.33;100611.91;103585;1290;71307;-75
2022/11/06 11:25:47;;;;;;;3.30;1.90;;;;;;;13.71;59.87;100604.61;103891;1297;61364;-74
2022/11/06 11:28:28;;;;;;;4.00;1.70;;;;;;;14.04;59.75;100590.80;104055;1301;61248;-75
2022/11/06 11:31:10;;;;;;;3.80;1.80;;;;;;;14.37;57.93;100577.98;103179;1305;73445;-75
2022/11/06 11:33:40;;;;;;;3.40;1.60;;;;;;;14.72;56.77;100570.20;103932;1294;69966;-73
2022/11/06 11:36:08;;;;;;;4.00;1.70;;;;;;;15.09;55.55;100560.66;104862;1297;71707;-74
2022/11/06 11:38:38;;;;;;;3.60;1.50;;;;;;;15.51;54.61;100558.34;104461;1298;61269;-73
2022/11/06 11:41:10;;;;;;;3.10;1.70;;;;;;;15.97;53.39;100561.39;103904;1296;61471;-73
2022/11/06 11:43:37;;;;;;;3.40;1.60;;;;;;;16.34;51.14;100555.20;105177;1284;73159;-73
2022/11/06 11:46:06;;;;;;;3.30;1.70;;;;;;;16.71;49.67;100558.54;105395;1298;70016;-73
2022/11/06 11:48:54;;;;;;;3.20;1.70;;;;;;;17.10;48.54;100558.06;105473;1295;71310;-72
2022/11/06 11:51:30;;;;;;;3.40;1.50;;;;;;;17.35;46.16;100557.92;105062;1293;61085;-73
2022/11/06 11:54:25;;;;;;;3.00;1.50;;;;;;;17.84;45.95;100560.25;105165;1300;58996;-74
2022/11/06 11:56:56;;;;;;;2.40;1.30;;;;;;;18.20;43.68;100563.84;104789;1301;74943;-73
2022/11/06 11:59:38;;;;;;;3.00;1.60;;;;;;;18.42;43.25;100552.76;103596;1300;71178;-72